Time;durP1;ratioP1;P1;durP2;ratioP2;P2;SDS_P1;SDS_P2;PMS_P1;PMS_P2;Temp;Humidity;BMP_temperature;BMP_pressure;BME280_temperature;BME280_humidity;BME280_pressure;Samples;Min_cycle;Max_cycle;Signal;HPM_P1;HPM_P2
2023/08/04 00:01:36;;;;;;;4.80;0.60;;;;;;;17.84;72.35;99492.27;107777;1268;22588;-78
2023/08/04 00:04:07;;;;;;;6.00;0.80;;;;;;;17.78;72.51;99485.93;108319;1272;22526;-78
2023/08/04 00:06:38;;;;;;;3.70;0.70;;;;;;;17.74;72.67;99482.84;108863;1269;22535;-78
2023/08/04 00:09:09;;;;;;;4.80;0.60;;;;;;;17.69;72.92;99492.27;108601;1268;24193;-78
2023/08/04 00:11:39;;;;;;;5.30;0.70;;;;;;;17.63;73.12;99492.32;107644;1260;22513;-78
2023/08/04 00:14:10;;;;;;;5.80;0.80;;;;;;;17.58;73.44;99487.55;107515;1269;22645;-78
2023/08/04 00:16:41;;;;;;;6.00;0.70;;;;;;;17.51;73.64;99481.44;107474;1268;22660;-78
2023/08/04 00:19:12;;;;;;;5.80;0.70;;;;;;;17.48;73.72;99485.23;107478;1269;22540;-77
2023/08/04 00:21:42;;;;;;;3.10;0.80;;;;;;;17.46;73.96;99469.36;107518;1269;22647;-78
2023/08/04 00:24:13;;;;;;;6.10;0.60;;;;;;;17.43;74.06;99473.02;107547;1268;22601;-78
2023/08/04 00:26:44;;;;;;;6.10;0.40;;;;;;;17.41;74.25;99475.53;107489;1269;22521;-78
2023/08/04 00:29:14;;;;;;;5.10;0.60;;;;;;;17.37;74.50;99477.83;107505;1268;23816;-78
2023/08/04 00:31:45;;;;;;;5.70;0.80;;;;;;;17.35;74.72;99482.57;107411;1270;26123;-78
2023/08/04 00:34:16;;;;;;;4.10;0.50;;;;;;;17.31;74.91;99485.89;107522;1256;22818;-78
2023/08/04 00:36:47;;;;;;;6.80;0.60;;;;;;;17.26;75.09;99486.13;107494;1269;22521;-78
2023/08/04 00:39:18;;;;;;;6.70;0.60;;;;;;;17.25;75.17;99479.70;107607;1269;22935;-79
2023/08/04 00:41:49;;;;;;;3.70;0.60;;;;;;;17.23;75.27;99474.80;107556;1269;24090;-78
2023/08/04 00:44:20;;;;;;;4.80;0.60;;;;;;;17.23;75.07;99474.88;107497;1269;22518;-78
2023/08/04 00:46:50;;;;;;;5.30;0.60;;;;;;;17.23;75.23;99487.45;107548;1269;22528;-79
2023/08/04 00:49:22;;;;;;;2.10;0.50;;;;;;;17.21;75.30;99491.73;107556;1270;25680;-78
2023/08/04 00:51:54;;;;;;;5.70;0.70;;;;;;;17.17;75.57;99490.94;107501;1275;25361;-78
2023/08/04 00:54:24;;;;;;;4.60;0.70;;;;;;;17.13;75.71;99489.38;107535;1275;26503;-78
2023/08/04 00:56:56;;;;;;;6.30;0.70;;;;;;;17.11;75.87;99486.70;107522;1265;22536;-78
2023/08/04 00:59:30;;;;;;;5.90;0.50;;;;;;;17.10;75.83;99486.91;110432;1275;22411;-78
2023/08/04 01:02:01;;;;;;;4.00;0.60;;;;;;;17.10;76.04;99488.98;110399;1272;22319;-78
2023/08/04 01:04:32;;;;;;;6.40;0.60;;;;;;;17.10;75.92;99489.69;110427;1269;23255;-79
2023/08/04 01:07:15;;;;;;;6.80;0.70;;;;;;;17.09;76.27;99496.08;110407;1275;22387;-79
2023/08/04 01:09:58;;;;;;;2.10;0.40;;;;;;;17.06;76.48;99502.27;110401;1275;22142;-78
2023/08/04 01:12:37;;;;;;;5.90;0.60;;;;;;;17.04;76.52;99508.98;110417;1270;22139;-78
2023/08/04 01:15:10;;;;;;;4.30;0.60;;;;;;;17.03;76.67;99502.49;110403;1272;23254;-78
2023/08/04 01:17:41;;;;;;;5.90;0.70;;;;;;;17.00;76.89;99500.39;110408;1269;22577;-79
2023/08/04 01:20:13;;;;;;;9.70;0.70;;;;;;;16.97;76.94;99494.70;110424;1269;22327;-78
2023/08/04 01:22:44;;;;;;;3.20;0.60;;;;;;;16.97;76.95;99494.51;110421;1275;22384;-79
2023/08/04 01:25:15;;;;;;;3.70;0.50;;;;;;;16.96;77.17;99497.73;110395;1272;22221;-78
2023/08/04 01:27:49;;;;;;;5.80;0.60;;;;;;;16.95;77.15;99502.42;110436;1272;23065;-78
2023/08/04 01:30:22;;;;;;;4.20;0.60;;;;;;;16.96;77.22;99503.08;110424;1269;22244;-77
2023/08/04 01:32:53;;;;;;;4.30;0.60;;;;;;;16.95;77.14;99506.21;110401;1269;22187;-79
2023/08/04 01:35:23;;;;;;;5.40;0.60;;;;;;;16.96;77.23;99516.05;110432;1272;22321;-78
2023/08/04 01:37:54;;;;;;;6.10;0.60;;;;;;;16.95;77.19;99521.86;110395;1275;22134;-78
2023/08/04 01:40:25;;;;;;;3.20;0.40;;;;;;;16.94;77.26;99520.76;110422;1269;22352;-78
2023/08/04 01:42:56;;;;;;;5.50;0.60;;;;;;;16.93;77.57;99522.04;110408;1269;22297;-78
2023/08/04 01:45:26;;;;;;;5.10;0.60;;;;;;;16.91;77.61;99525.10;110410;1275;22186;-78
2023/08/04 01:47:57;;;;;;;5.90;0.60;;;;;;;16.89;77.59;99519.45;110404;1269;22414;-78
2023/08/04 01:50:28;;;;;;;5.80;0.70;;;;;;;16.86;77.51;99516.83;110385;1272;22178;-78
2023/08/04 01:53:00;;;;;;;2.80;0.50;;;;;;;16.85;77.49;99515.64;110410;1269;22193;-79
2023/08/04 01:55:31;;;;;;;4.30;0.90;;;;;;;16.82;77.62;99514.20;110435;1272;22393;-79
2023/08/04 01:58:02;;;;;;;8.50;0.80;;;;;;;16.80;77.70;99515.46;110438;1269;22424;-79
2023/08/04 02:00:33;;;;;;;3.90;0.60;;;;;;;16.78;77.70;99515.65;110383;1275;22386;-78
2023/08/04 02:03:04;;;;;;;8.00;0.70;;;;;;;16.78;77.53;99516.98;110425;1272;22261;-78
2023/08/04 02:05:34;;;;;;;6.10;0.60;;;;;;;16.79;77.30;99515.95;110411;1272;22142;-79
2023/08/04 02:08:05;;;;;;;5.40;0.70;;;;;;;16.80;77.28;99524.16;110432;1269;22321;-78
2023/08/04 02:10:36;;;;;;;3.90;0.60;;;;;;;16.79;77.25;99529.56;110409;1272;22152;-78
2023/08/04 02:13:07;;;;;;;2.60;0.50;;;;;;;16.78;77.27;99529.91;110400;1275;22381;-79
2023/08/04 02:15:37;;;;;;;6.30;0.50;;;;;;;16.77;77.43;99535.52;110406;1269;22234;-78
2023/08/04 02:18:08;;;;;;;5.80;0.70;;;;;;;16.75;77.36;99538.36;110395;1272;22199;-78
2023/08/04 02:20:38;;;;;;;7.70;0.60;;;;;;;16.74;77.61;99544.88;110419;1269;22223;-78
2023/08/04 02:23:09;;;;;;;5.60;0.70;;;;;;;16.72;77.85;99553.16;110408;1275;22371;-78
2023/08/04 02:25:40;;;;;;;9.30;0.80;;;;;;;16.70;78.20;99560.08;110456;1268;22340;-78
2023/08/04 02:28:10;;;;;;;11.40;0.90;;;;;;;16.65;78.33;99561.64;110434;1272;22121;-78
2023/08/04 02:30:41;;;;;;;5.00;0.60;;;;;;;16.63;78.57;99564.50;110401;1270;23055;-78
2023/08/04 02:33:12;;;;;;;2.90;0.50;;;;;;;16.60;78.60;99560.95;110300;1275;202269;-78
2023/08/04 02:35:42;;;;;;;4.10;0.60;;;;;;;16.58;78.68;99566.56;110401;1275;22320;-79
2023/08/04 02:38:13;;;;;;;3.90;0.60;;;;;;;16.56;78.97;99571.11;110415;1275;22192;-78
2023/08/04 02:40:44;;;;;;;11.50;0.70;;;;;;;16.54;78.91;99570.27;110399;1266;22409;-78
2023/08/04 02:43:14;;;;;;;6.80;0.70;;;;;;;16.52;78.97;99567.49;110432;1272;22185;-78
2023/08/04 02:45:51;;;;;;;3.60;0.40;;;;;;;16.51;79.00;99568.52;110390;1272;22303;-78
2023/08/04 02:48:21;;;;;;;4.60;0.50;;;;;;;16.52;79.12;99563.23;110266;1273;22209;-78
2023/08/04 02:51:03;;;;;;;2.60;0.50;;;;;;;16.52;79.03;99564.61;110390;1275;22961;-78
2023/08/04 02:53:35;;;;;;;4.90;1.70;;;;;;;16.54;79.08;99562.38;110413;1272;23682;-76
2023/08/04 02:56:12;;;;;;;5.90;0.70;;;;;;;16.55;79.05;99564.05;110422;1275;22422;-76
2023/08/04 02:58:44;;;;;;;5.90;0.70;;;;;;;16.57;79.00;99564.13;110381;1273;23677;-76
2023/08/04 03:01:15;;;;;;;4.40;0.50;;;;;;;16.59;78.93;99574.46;110428;1270;22332;-76
2023/08/04 03:03:46;;;;;;;3.00;0.60;;;;;;;16.60;79.07;99584.36;110427;1272;22388;-76
2023/08/04 03:06:16;;;;;;;5.00;0.60;;;;;;;16.60;79.20;99594.98;110444;1272;22413;-74
2023/08/04 03:08:47;;;;;;;4.70;0.60;;;;;;;16.62;79.13;99592.70;110399;1272;22450;-74
2023/08/04 03:11:18;;;;;;;3.80;0.60;;;;;;;16.62;79.21;99595.04;110398;1269;22157;-74
2023/08/04 03:13:48;;;;;;;7.40;0.60;;;;;;;16.62;78.97;99600.78;110425;1273;22325;-75
2023/08/04 03:16:19;;;;;;;6.10;0.80;;;;;;;16.63;79.10;99599.75;110420;1264;22281;-74
2023/08/04 03:18:50;;;;;;;6.00;0.70;;;;;;;16.64;79.24;99596.80;110408;1270;22154;-74
2023/08/04 03:21:20;;;;;;;6.20;0.90;;;;;;;16.65;79.23;99598.17;110434;1275;22235;-75
2023/08/04 03:23:51;;;;;;;5.50;0.70;;;;;;;16.67;79.23;99596.66;110407;1275;22413;-74
2023/08/04 03:26:22;;;;;;;5.50;0.70;;;;;;;16.68;79.66;99589.05;110431;1275;22320;-74
2023/08/04 03:28:52;;;;;;;5.40;0.60;;;;;;;16.68;79.65;99586.29;110418;1272;22174;-74
2023/08/04 03:31:23;;;;;;;3.30;0.60;;;;;;;16.69;79.59;99588.63;110414;1275;22134;-74
2023/08/04 03:33:54;;;;;;;3.60;0.60;;;;;;;16.71;79.69;99594.95;110440;1275;23709;-76
2023/08/04 03:36:24;;;;;;;6.00;0.60;;;;;;;16.71;79.78;99592.05;110395;1270;22190;-76
2023/08/04 03:38:55;;;;;;;8.80;0.90;;;;;;;16.72;79.69;99588.33;110395;1275;23289;-77
2023/08/04 03:41:26;;;;;;;2.70;0.60;;;;;;;16.73;79.55;99580.83;110403;1275;23739;-76
2023/08/04 03:43:57;;;;;;;3.50;0.60;;;;;;;16.73;79.94;99587.49;110435;1275;22410;-76
2023/08/04 03:46:27;;;;;;;4.60;0.80;;;;;;;16.73;80.01;99596.52;110414;1275;23464;-76
2023/08/04 03:48:58;;;;;;;5.60;1.00;;;;;;;16.72;79.87;99604.20;110382;1272;23015;-76
2023/08/04 03:51:28;;;;;;;8.30;1.00;;;;;;;16.72;79.87;99607.42;110394;1275;22226;-76
2023/08/04 03:53:59;;;;;;;3.10;0.70;;;;;;;16.73;79.89;99602.34;110393;1271;22296;-77
2023/08/04 03:56:30;;;;;;;4.80;0.80;;;;;;;16.75;80.02;99598.80;110419;1272;23348;-76
2023/08/04 03:59:00;;;;;;;3.40;0.70;;;;;;;16.75;80.29;99604.67;110383;1275;22193;-76
2023/08/04 04:01:31;;;;;;;3.40;0.70;;;;;;;16.75;80.43;99602.73;110409;1271;22391;-77
2023/08/04 04:04:02;;;;;;;4.50;0.70;;;;;;;16.74;80.64;99609.56;110446;1270;22195;-76
2023/08/04 04:06:32;;;;;;;2.70;0.60;;;;;;;16.72;80.76;99611.74;110399;1272;22242;-76
2023/08/04 04:09:03;;;;;;;4.30;0.60;;;;;;;16.67;81.10;99611.58;110412;1272;22221;-76
2023/08/04 04:11:34;;;;;;;6.20;0.80;;;;;;;16.60;81.32;99610.03;110424;1272;22299;-76
2023/08/04 04:14:05;;;;;;;7.80;1.00;;;;;;;16.55;81.43;99608.27;110431;1275;22362;-76
2023/08/04 04:16:35;;;;;;;4.30;0.70;;;;;;;16.53;81.69;99615.38;110453;1275;22327;-77
2023/08/04 04:19:06;;;;;;;4.20;0.70;;;;;;;16.51;81.80;99617.20;108527;1272;24211;-76
2023/08/04 04:21:37;;;;;;;6.50;0.70;;;;;;;16.52;81.65;99610.58;108599;1272;23067;-76
2023/08/04 04:24:08;;;;;;;4.20;0.70;;;;;;;16.54;81.85;99612.65;108308;1272;27544;-76
2023/08/04 04:26:38;;;;;;;3.10;0.70;;;;;;;16.54;81.92;99620.48;107628;1266;25312;-76
2023/08/04 04:29:09;;;;;;;9.50;0.90;;;;;;;16.55;82.05;99628.98;107536;1268;25122;-76
2023/08/04 04:31:40;;;;;;;9.50;0.70;;;;;;;16.53;82.18;99632.02;107550;1269;25336;-76
2023/08/04 04:34:10;;;;;;;7.80;1.00;;;;;;;16.51;82.48;99637.13;107463;1269;22629;-76
2023/08/04 04:36:41;;;;;;;7.40;0.90;;;;;;;16.46;82.87;99633.06;107517;1269;22572;-75
2023/08/04 04:39:13;;;;;;;7.00;0.70;;;;;;;16.43;82.92;99629.37;107564;1270;22542;-76
2023/08/04 04:41:44;;;;;;;4.80;0.80;;;;;;;16.43;83.11;99636.80;107532;1269;22525;-75
2023/08/04 04:44:14;;;;;;;5.90;0.60;;;;;;;16.44;83.11;99632.79;107453;1272;22630;-76
2023/08/04 04:46:45;;;;;;;3.50;0.50;;;;;;;16.46;82.94;99631.67;107448;1268;22571;-75
2023/08/04 04:49:16;;;;;;;1.90;0.50;;;;;;;16.50;82.67;99632.63;107476;1270;22535;-75
2023/08/04 04:51:47;;;;;;;3.70;0.60;;;;;;;16.54;82.58;99634.26;107507;1271;22665;-76
2023/08/04 04:54:18;;;;;;;5.40;0.50;;;;;;;16.60;82.42;99637.98;107560;1270;22551;-75
2023/08/04 04:56:50;;;;;;;2.80;0.30;;;;;;;16.65;82.54;99639.06;107570;1273;25334;-76
2023/08/04 04:59:21;;;;;;;2.50;0.40;;;;;;;16.69;82.68;99639.02;107566;1275;24276;-75
2023/08/04 05:01:52;;;;;;;4.20;0.50;;;;;;;16.73;82.53;99639.05;107586;1275;22951;-77
2023/08/04 05:04:23;;;;;;;2.50;0.50;;;;;;;16.77;82.30;99646.27;107428;1270;22527;-75
2023/08/04 05:06:53;;;;;;;4.30;0.40;;;;;;;16.82;82.40;99653.83;107558;1273;22631;-75
2023/08/04 05:09:24;;;;;;;4.30;0.40;;;;;;;16.85;82.43;99656.17;107530;1275;24170;-75
2023/08/04 05:11:55;;;;;;;2.60;0.40;;;;;;;16.89;82.31;99660.42;107566;1273;22540;-75
2023/08/04 05:14:25;;;;;;;2.90;0.60;;;;;;;16.92;82.57;99648.33;107495;1272;22636;-75
2023/08/04 05:16:56;;;;;;;2.30;0.40;;;;;;;16.94;82.26;99643.31;107510;1270;22527;-75
2023/08/04 05:19:27;;;;;;;5.30;0.40;;;;;;;16.97;82.21;99647.89;107512;1272;22586;-75
2023/08/04 05:21:57;;;;;;;7.90;0.50;;;;;;;17.01;82.18;99649.48;110353;1272;23366;-76
2023/08/04 05:24:28;;;;;;;4.80;0.40;;;;;;;17.04;82.10;99650.45;110441;1270;22347;-76
2023/08/04 05:26:59;;;;;;;6.10;0.50;;;;;;;17.07;82.02;99651.21;110398;1275;22175;-77
2023/08/04 05:29:30;;;;;;;2.50;0.40;;;;;;;17.10;81.88;99650.04;110372;1272;22324;-76
2023/08/04 05:32:01;;;;;;;2.00;0.30;;;;;;;17.13;81.85;99655.77;110420;1269;22278;-76
2023/08/04 05:34:31;;;;;;;6.00;0.80;;;;;;;17.16;81.65;99661.05;110394;1269;22380;-76
2023/08/04 05:37:02;;;;;;;9.00;0.50;;;;;;;17.20;81.67;99669.09;110404;1272;22249;-76
2023/08/04 05:39:34;;;;;;;2.10;0.40;;;;;;;17.24;81.48;99668.70;110367;1273;22190;-77
2023/08/04 05:42:06;;;;;;;3.20;0.30;;;;;;;17.28;81.25;99671.67;110460;1275;22649;-76
2023/08/04 05:44:37;;;;;;;4.70;0.40;;;;;;;17.33;80.96;99673.59;110355;1272;22972;-76
2023/08/04 05:47:08;;;;;;;4.80;0.30;;;;;;;17.37;80.80;99668.03;110338;1276;22289;-76
2023/08/04 05:49:38;;;;;;;1.20;0.30;;;;;;;17.42;80.47;99672.13;110371;1275;22130;-76
2023/08/04 05:52:09;;;;;;;3.80;0.30;;;;;;;17.48;80.31;99676.00;110414;1273;22844;-79
2023/08/04 05:54:40;;;;;;;2.10;0.40;;;;;;;17.55;80.01;99681.02;110395;1275;22169;-76
2023/08/04 05:57:11;;;;;;;3.00;0.20;;;;;;;17.62;80.15;99681.66;110393;1275;22208;-77
2023/08/04 05:59:42;;;;;;;2.10;0.40;;;;;;;17.70;80.12;99683.02;110425;1265;22373;-76
2023/08/04 06:02:12;;;;;;;2.90;0.40;;;;;;;17.76;80.13;99685.91;110366;1275;22365;-78
2023/08/04 06:04:44;;;;;;;3.30;0.30;;;;;;;17.84;80.03;99685.04;110368;1273;22312;-78
2023/08/04 06:07:15;;;;;;;1.20;0.20;;;;;;;17.93;79.74;99689.23;110399;1275;22474;-77
2023/08/04 06:09:46;;;;;;;2.30;0.20;;;;;;;18.00;79.66;99690.98;110424;1274;22158;-77
2023/08/04 06:12:18;;;;;;;3.30;0.40;;;;;;;18.08;79.46;99690.98;110396;1272;22259;-77
2023/08/04 06:14:48;;;;;;;3.00;0.30;;;;;;;18.15;79.06;99697.11;110422;1267;23126;-76
2023/08/04 06:17:19;;;;;;;4.30;0.20;;;;;;;18.23;79.04;99694.52;110413;1275;22181;-77
2023/08/04 06:19:50;;;;;;;2.60;0.20;;;;;;;18.31;78.72;99694.82;110389;1275;22175;-76
2023/08/04 06:22:20;;;;;;;4.10;0.30;;;;;;;18.38;78.48;99699.18;110401;1275;22185;-76
2023/08/04 06:24:51;;;;;;;3.70;0.30;;;;;;;18.46;78.49;99692.90;110457;1271;22298;-77
2023/08/04 06:27:22;;;;;;;2.80;0.20;;;;;;;18.54;78.13;99695.23;110414;1275;22932;-77
2023/08/04 06:29:53;;;;;;;4.80;0.20;;;;;;;18.62;78.05;99699.69;110377;1274;22177;-77
2023/08/04 06:32:23;;;;;;;4.20;0.20;;;;;;;18.71;78.07;99706.13;110389;1275;22208;-77
2023/08/04 06:34:54;;;;;;;3.50;0.30;;;;;;;18.80;77.80;99705.56;110399;1275;22422;-76
2023/08/04 06:37:25;;;;;;;2.30;0.30;;;;;;;18.90;77.58;99711.27;110426;1274;22221;-76
2023/08/04 06:39:56;;;;;;;3.50;0.20;;;;;;;19.01;77.67;99715.82;110286;1271;22212;-76
2023/08/04 06:42:27;;;;;;;2.40;0.20;;;;;;;19.12;77.04;99711.73;110377;1275;22199;-77
2023/08/04 06:44:58;;;;;;;5.40;0.30;;;;;;;19.22;76.56;99711.61;110380;1267;22991;-77
2023/08/04 06:47:28;;;;;;;2.40;0.20;;;;;;;19.30;76.16;99710.77;110459;1274;22341;-75
2023/08/04 06:50:00;;;;;;;4.90;0.30;;;;;;;19.37;75.91;99717.93;110388;1268;22221;-76
2023/08/04 06:52:31;;;;;;;4.70;0.40;;;;;;;19.45;75.65;99727.77;110412;1275;22162;-76
2023/08/04 06:55:01;;;;;;;3.20;0.30;;;;;;;19.53;75.09;99730.26;110439;1275;22165;-76
2023/08/04 06:57:32;;;;;;;4.00;0.20;;;;;;;19.61;75.00;99734.17;110394;1274;22170;-76
2023/08/04 07:00:04;;;;;;;2.70;0.20;;;;;;;19.69;74.57;99735.04;110348;1275;22832;-77
2023/08/04 07:02:34;;;;;;;2.50;0.20;;;;;;;19.81;74.92;99742.23;110400;1275;22305;-76
2023/08/04 07:05:06;;;;;;;2.20;0.20;;;;;;;19.94;74.32;99746.55;110350;1275;22201;-76
2023/08/04 07:07:37;;;;;;;2.20;0.30;;;;;;;20.08;73.66;99749.33;109728;1270;38425;-77
2023/08/04 07:10:11;;;;;;;2.80;0.30;;;;;;;20.19;72.84;99755.55;110201;1254;22145;31
2023/08/04 07:12:42;;;;;;;2.40;0.20;;;;;;;20.32;72.99;99758.80;110408;1272;22336;-79
2023/08/04 07:15:13;;;;;;;3.20;0.20;;;;;;;20.46;73.03;99760.31;110411;1265;22355;-79
2023/08/04 07:17:44;;;;;;;2.10;0.20;;;;;;;20.59;71.67;99764.02;110428;1275;22366;-79
2023/08/04 07:20:15;;;;;;;3.20;0.20;;;;;;;20.65;71.38;99759.39;110486;1265;22322;-82
2023/08/04 07:22:46;;;;;;;1.30;0.10;;;;;;;20.75;71.62;99763.89;110485;1275;22508;-81
2023/08/04 07:25:17;;;;;;;1.50;0.20;;;;;;;20.86;70.66;99765.75;110482;1262;22997;-84
2023/08/04 07:27:48;;;;;;;2.80;0.20;;;;;;;20.89;69.52;99763.80;110447;1272;23144;-81
2023/08/04 07:30:19;;;;;;;2.00;0.10;;;;;;;20.90;69.30;99763.71;110441;1274;22278;-84
2023/08/04 07:32:49;;;;;;;3.80;0.30;;;;;;;20.95;69.11;99763.48;110467;1269;22387;-81
2023/08/04 07:35:20;;;;;;;1.00;0.20;;;;;;;21.01;68.56;99765.33;110444;1267;22316;-82
2023/08/04 07:37:51;;;;;;;2.60;0.10;;;;;;;21.03;67.42;99764.61;110425;1270;22133;-83
2023/08/04 07:40:22;;;;;;;1.50;0.10;;;;;;;21.06;67.74;99775.30;110456;1275;22400;-80
2023/08/04 07:42:53;;;;;;;3.00;0.20;;;;;;;21.16;67.20;99777.67;110475;1275;22232;-79
2023/08/04 07:45:23;;;;;;;3.50;0.20;;;;;;;21.21;66.49;99779.66;110432;1263;22955;-77
2023/08/04 07:47:54;;;;;;;2.50;0.30;;;;;;;21.26;66.57;99778.88;110457;1275;22347;-79
2023/08/04 07:50:25;;;;;;;1.90;0.20;;;;;;;21.33;66.36;99784.19;110467;1274;22164;-79
2023/08/04 07:52:56;;;;;;;1.50;0.20;;;;;;;21.44;66.32;99785.23;110466;1274;23178;-79
2023/08/04 07:55:26;;;;;;;1.40;0.20;;;;;;;21.55;66.27;99780.40;110181;1275;22296;-79
2023/08/04 07:57:57;;;;;;;2.80;0.10;;;;;;;21.64;65.74;99780.22;110370;1272;22321;-79
2023/08/04 08:00:28;;;;;;;4.60;0.30;;;;;;;21.68;64.85;99779.31;110349;1275;22322;-83
2023/08/04 08:02:59;;;;;;;3.50;0.20;;;;;;;21.69;64.48;99779.99;110191;1275;22434;-81
2023/08/04 08:05:30;;;;;;;1.70;0.30;;;;;;;21.71;64.39;99776.77;110355;1275;23007;-81
2023/08/04 08:08:01;;;;;;;3.90;0.20;;;;;;;21.76;64.20;99777.08;110388;1269;22284;-81
2023/08/04 08:10:32;;;;;;;3.30;0.20;;;;;;;21.83;63.78;99778.54;110375;1275;22419;-82
2023/08/04 08:13:03;;;;;;;1.90;0.20;;;;;;;21.89;63.38;99774.58;110410;1269;22227;-82
2023/08/04 08:15:35;;;;;;;2.60;0.40;;;;;;;21.93;63.02;99776.55;110426;1275;22163;-85
2023/08/04 08:18:06;;;;;;;2.40;0.10;;;;;;;22.00;62.96;99781.23;110416;1275;23144;-81
2023/08/04 08:20:39;;;;;;;0.80;0.10;;;;;;;22.08;62.88;99787.73;110378;1269;22294;-81
2023/08/04 08:23:11;;;;;;;3.50;0.30;;;;;;;22.14;62.31;99782.02;110424;1275;22161;-81
2023/08/04 08:25:41;;;;;;;2.60;0.30;;;;;;;22.15;62.19;99786.57;110384;1275;22181;-83
2023/08/04 08:28:12;;;;;;;5.80;0.30;;;;;;;22.21;61.97;99790.68;110358;1275;22331;-79
2023/08/04 08:30:43;;;;;;;2.20;0.40;;;;;;;22.28;61.79;99784.23;110299;1269;22209;-83
2023/08/04 08:33:14;;;;;;;4.80;0.30;;;;;;;22.33;61.30;99781.38;110407;1275;22149;-83
2023/08/04 08:35:44;;;;;;;3.00;0.30;;;;;;;22.36;61.59;99782.02;110421;1275;22321;-83
2023/08/04 08:38:15;;;;;;;2.20;0.10;;;;;;;22.50;61.33;99782.81;110367;1275;23135;-83
2023/08/04 08:40:49;;;;;;;1.70;0.30;;;;;;;22.61;60.98;99778.41;110361;1275;22168;-84
2023/08/04 08:43:19;;;;;;;1.90;0.30;;;;;;;22.70;60.66;99777.13;110411;1275;22966;-83
2023/08/04 08:45:51;;;;;;;0.80;0.20;;;;;;;22.74;60.37;99777.61;110434;1275;22423;-83
2023/08/04 08:48:22;;;;;;;4.00;0.20;;;;;;;22.72;59.37;99784.59;110415;1275;23071;-84
2023/08/04 08:51:00;;;;;;;2.10;0.20;;;;;;;22.69;59.69;99784.45;110410;1275;22179;-83
2023/08/04 08:53:32;;;;;;;3.60;0.20;;;;;;;22.79;60.22;99792.77;110440;1269;22259;-83
2023/08/04 08:56:05;;;;;;;2.20;0.20;;;;;;;22.93;59.85;99796.99;110490;1275;22801;-83
2023/08/04 08:58:36;;;;;;;6.90;0.40;;;;;;;23.08;59.95;99800.12;110389;1275;22850;-83
2023/08/04 09:01:07;;;;;;;3.80;0.30;;;;;;;23.22;59.40;99800.61;110457;1275;22169;-83
2023/08/04 09:03:39;;;;;;;1.20;0.20;;;;;;;23.32;58.88;99798.22;110460;1275;22201;-84
2023/08/04 09:06:10;;;;;;;1.30;0.20;;;;;;;23.37;58.00;99799.23;110474;1275;22857;-84
2023/08/04 09:08:41;;;;;;;1.80;0.20;;;;;;;23.39;57.68;99800.13;110456;1265;23042;-83
2023/08/04 09:11:12;;;;;;;2.00;0.20;;;;;;;23.44;58.00;99803.43;110456;1272;22131;-84
2023/08/04 09:13:45;;;;;;;6.40;0.30;;;;;;;23.56;57.56;99803.78;110422;1275;22168;-83
2023/08/04 09:16:16;;;;;;;1.60;0.10;;;;;;;23.61;56.97;99801.80;110412;1275;22630;-84
2023/08/04 09:18:48;;;;;;;0.80;0.10;;;;;;;23.62;56.11;99802.63;110412;1266;22258;-83
2023/08/04 09:21:19;;;;;;;2.50;0.20;;;;;;;23.56;55.84;99800.33;110435;1275;22144;-83
2023/08/04 09:23:52;;;;;;;2.40;0.20;;;;;;;23.54;56.00;99800.55;110406;1272;23010;-83
2023/08/04 09:26:23;;;;;;;1.50;0.20;;;;;;;23.58;56.13;99805.34;110456;1275;22122;-84
2023/08/04 09:29:05;;;;;;;1.80;0.10;;;;;;;23.62;55.34;99806.82;110435;1275;22270;-84
2023/08/04 09:31:40;;;;;;;2.10;0.20;;;;;;;23.63;55.42;99809.63;110450;1266;22243;-83
2023/08/04 09:34:11;;;;;;;0.90;0.10;;;;;;;23.61;54.62;99808.80;110436;1265;22163;-83
2023/08/04 09:36:45;;;;;;;3.50;0.20;;;;;;;23.53;54.30;99813.06;110419;1275;22209;-83
2023/08/04 09:39:17;;;;;;;0.50;0.20;;;;;;;23.54;55.21;99814.27;110439;1275;22244;-83
2023/08/04 09:41:49;;;;;;;2.40;0.10;;;;;;;23.58;54.75;99814.02;110421;1275;22438;-83
2023/08/04 09:44:20;;;;;;;1.60;0.20;;;;;;;23.62;55.27;99812.59;110455;1275;22159;-83
2023/08/04 09:46:52;;;;;;;0.60;0.10;;;;;;;23.67;54.35;99814.53;110492;1275;22372;-83
2023/08/04 09:49:24;;;;;;;0.60;0.10;;;;;;;23.68;54.39;99798.94;110446;1275;22126;-83
2023/08/04 09:51:56;;;;;;;0.60;0.10;;;;;;;23.71;54.50;99792.42;110461;1275;23356;-83
2023/08/04 09:54:28;;;;;;;1.70;0.20;;;;;;;23.75;54.26;99793.56;110414;1275;22141;-84
2023/08/04 09:56:58;;;;;;;1.20;0.10;;;;;;;23.76;53.62;99791.55;110419;1275;22151;-84
2023/08/04 09:59:31;;;;;;;1.90;0.10;;;;;;;23.72;53.63;99800.91;110474;1275;22239;-83
2023/08/04 10:02:02;;;;;;;5.50;0.40;;;;;;;23.69;53.56;99804.36;110423;1275;22241;-83
2023/08/04 10:04:33;;;;;;;1.70;0.20;;;;;;;23.67;53.49;99805.61;110488;1275;22149;-83
2023/08/04 10:07:07;;;;;;;2.20;0.20;;;;;;;23.69;53.61;99800.23;110428;1275;22223;-83
2023/08/04 10:09:39;;;;;;;2.00;0.20;;;;;;;23.76;53.83;99804.63;110415;1275;23015;-83
2023/08/04 10:12:11;;;;;;;1.90;0.10;;;;;;;23.82;53.54;99800.58;110482;1275;23029;-83
2023/08/04 10:14:43;;;;;;;0.80;0.30;;;;;;;23.83;53.28;99800.84;110457;1276;22354;-83
2023/08/04 10:17:15;;;;;;;0.50;0.10;;;;;;;23.85;53.30;99799.34;110449;1275;22145;-83
2023/08/04 10:19:45;;;;;;;3.00;0.20;;;;;;;23.91;53.46;99795.73;110507;1276;22894;-83
2023/08/04 10:22:17;;;;;;;1.40;0.20;;;;;;;24.00;53.05;99795.45;110461;1275;22172;-83
2023/08/04 10:24:48;;;;;;;0.70;0.20;;;;;;;24.01;52.63;99791.84;110476;1275;22953;-83
2023/08/04 10:27:20;;;;;;;0.60;0.20;;;;;;;24.03;52.79;99787.91;110438;1275;22139;-83
2023/08/04 10:30:10;;;;;;;1.80;0.20;;;;;;;24.03;52.45;99793.45;110436;1275;22335;-83
2023/08/04 10:32:42;;;;;;;1.20;0.30;;;;;;;24.01;52.14;99792.31;110454;1275;22257;-84
2023/08/04 10:35:21;;;;;;;1.30;0.20;;;;;;;23.96;51.94;99791.41;110447;1275;22439;-84
2023/08/04 10:37:54;;;;;;;1.90;0.10;;;;;;;23.93;51.80;99786.02;110435;1275;22891;-83
2023/08/04 10:40:33;;;;;;;1.60;0.20;;;;;;;23.94;51.85;99777.27;110437;1275;22173;-83
2023/08/04 10:43:06;;;;;;;1.70;0.10;;;;;;;24.00;51.95;99768.35;110439;1275;22261;-83
2023/08/04 10:45:55;;;;;;;2.90;0.10;;;;;;;24.07;51.95;99768.92;110486;1275;23048;-84
2023/08/04 10:48:28;;;;;;;0.60;0.10;;;;;;;24.13;51.61;99773.17;110452;1275;22124;-83
2023/08/04 10:51:00;;;;;;;0.80;0.10;;;;;;;24.20;51.86;99783.48;110447;1276;22174;-83
2023/08/04 10:53:31;;;;;;;0.70;0.10;;;;;;;24.28;51.32;99789.29;110440;1275;23054;-83
2023/08/04 10:56:02;;;;;;;1.20;0.10;;;;;;;24.34;50.73;99791.25;110462;1272;23092;-83
2023/08/04 10:58:33;;;;;;;2.00;0.20;;;;;;;24.32;50.47;99795.37;110413;1275;22196;-83
2023/08/04 11:01:04;;;;;;;1.40;0.20;;;;;;;24.32;50.80;99793.94;110447;1275;22159;-83
2023/08/04 11:03:36;;;;;;;2.10;0.20;;;;;;;24.37;50.55;99792.63;110471;1275;22144;-84
2023/08/04 11:06:07;;;;;;;2.50;0.20;;;;;;;24.43;50.60;99801.96;110439;1276;22180;-83
2023/08/04 11:08:38;;;;;;;6.60;0.20;;;;;;;24.46;50.39;99798.26;110439;1275;22151;-83
2023/08/04 11:11:09;;;;;;;1.70;0.10;;;;;;;24.49;50.22;99787.85;110429;1275;22197;-83
2023/08/04 11:13:41;;;;;;;1.70;0.10;;;;;;;24.53;50.10;99785.18;110505;1269;22218;-83
2023/08/04 11:16:16;;;;;;;1.90;0.30;;;;;;;24.58;50.07;99786.69;110511;1275;22191;-83
2023/08/04 11:18:47;;;;;;;3.00;0.20;;;;;;;24.66;49.90;99787.94;110494;1273;22407;-83
2023/08/04 11:21:18;;;;;;;0.90;0.20;;;;;;;24.71;49.68;99791.58;110450;1275;22402;-83
2023/08/04 11:23:49;;;;;;;2.00;0.20;;;;;;;24.77;49.47;99799.46;110468;1275;22965;-83
2023/08/04 11:26:20;;;;;;;1.00;0.10;;;;;;;24.82;49.56;99802.12;110436;1275;22119;-84
2023/08/04 11:28:51;;;;;;;0.80;0.10;;;;;;;24.86;49.44;99801.20;110440;1275;22164;-84
2023/08/04 11:31:24;;;;;;;2.10;0.10;;;;;;;24.90;49.38;99799.13;110439;1275;22982;-84
2023/08/04 11:33:54;;;;;;;2.20;0.10;;;;;;;24.96;49.36;99798.86;110464;1275;22158;-83
2023/08/04 11:36:28;;;;;;;1.80;0.20;;;;;;;25.01;49.03;99808.27;110449;1275;22988;-83
2023/08/04 11:38:59;;;;;;;2.40;0.60;;;;;;;25.04;48.78;99806.65;110396;1275;22845;-83
2023/08/04 11:41:30;;;;;;;4.60;0.20;;;;;;;25.02;49.17;99806.52;110479;1275;22388;-83
2023/08/04 11:44:01;;;;;;;2.50;0.20;;;;;;;25.02;49.31;99809.21;110459;1275;22248;-83